Terminal Aerodrome Forecast
Issued by NWS

Current Version | Previous Version | Text Only | Print | Product List | Glossary On
Versions: 1 2 3 4 5 6 7 8 9 10 11 12 13 14 15
000
FTPA31 PHFO 250539
TAFHNY
TAF
PHNY 250539Z 2506/2606 VRB05KT P6SM FEW025
     FM250800 04007KT P6SM FEW035
     FM252000 26007KT P6SM BKN025
     FM260300 03010KT P6SM SCT025=

USA.gov is the U.S. government's official web portal to all federal, state and local government web resources and services.